sensor_id;sensor_type;location;lat;lon;timestamp;temperature;humidity
25250;DHT22;13201;51.148;13.738;2022-12-29T00:01:45;9.50;99.90
25250;DHT22;13201;51.148;13.738;2022-12-29T00:04:12;9.60;99.90
25250;DHT22;13201;51.148;13.738;2022-12-29T00:06:38;9.60;99.90
25250;DHT22;13201;51.148;13.738;2022-12-29T00:09:04;9.70;99.90
25250;DHT22;13201;51.148;13.738;2022-12-29T00:11:30;9.70;99.90
25250;DHT22;13201;51.148;13.738;2022-12-29T00:13:56;9.70;99.90
25250;DHT22;13201;51.148;13.738;2022-12-29T00:16:44;9.70;99.90
25250;DHT22;13201;51.148;13.738;2022-12-29T00:19:11;9.80;99.90
25250;DHT22;13201;51.148;13.738;2022-12-29T00:21:57;9.80;99.90
25250;DHT22;13201;51.148;13.738;2022-12-29T00:24:43;9.80;99.90
25250;DHT22;13201;51.148;13.738;2022-12-29T00:27:29;9.80;99.90
25250;DHT22;13201;51.148;13.738;2022-12-29T00:30:16;9.80;99.90
25250;DHT22;13201;51.148;13.738;2022-12-29T00:33:04;9.90;99.90
25250;DHT22;13201;51.148;13.738;2022-12-29T00:35:54;9.90;99.90
25250;DHT22;13201;51.148;13.738;2022-12-29T00:38:22;9.90;99.90
25250;DHT22;13201;51.148;13.738;2022-12-29T00:41:06;10.00;99.90
25250;DHT22;13201;51.148;13.738;2022-12-29T00:43:50;10.10;99.90
25250;DHT22;13201;51.148;13.738;2022-12-29T00:46:35;10.10;99.90
25250;DHT22;13201;51.148;13.738;2022-12-29T00:49:02;10.10;99.90
25250;DHT22;13201;51.148;13.738;2022-12-29T00:51:47;10.10;99.90
25250;DHT22;13201;51.148;13.738;2022-12-29T00:54:13;10.10;99.90
25250;DHT22;13201;51.148;13.738;2022-12-29T00:56:38;10.10;99.90
25250;DHT22;13201;51.148;13.738;2022-12-29T00:59:06;10.20;99.90
25250;DHT22;13201;51.148;13.738;2022-12-29T01:01:33;10.20;99.90
25250;DHT22;13201;51.148;13.738;2022-12-29T01:04:00;10.20;99.90
25250;DHT22;13201;51.148;13.738;2022-12-29T01:31:14;9.50;99.90
25250;DHT22;13201;51.148;13.738;2022-12-29T01:33:40;9.50;99.90
25250;DHT22;13201;51.148;13.738;2022-12-29T01:36:12;9.50;99.90
25250;DHT22;13201;51.148;13.738;2022-12-29T01:38:38;9.60;99.90
25250;DHT22;13201;51.148;13.738;2022-12-29T01:41:06;9.70;99.90
25250;DHT22;13201;51.148;13.738;2022-12-29T01:44:39;9.80;99.90
25250;DHT22;13201;51.148;13.738;2022-12-29T01:46:51;9.80;99.90
25250;DHT22;13201;51.148;13.738;2022-12-29T01:49:23;9.80;99.90
25250;DHT22;13201;51.148;13.738;2022-12-29T01:52:05;9.80;99.90
25250;DHT22;13201;51.148;13.738;2022-12-29T01:54:45;9.80;99.90
25250;DHT22;13201;51.148;13.738;2022-12-29T01:57:16;9.80;99.90
25250;DHT22;13201;51.148;13.738;2022-12-29T01:59:52;9.70;99.90
25250;DHT22;13201;51.148;13.738;2022-12-29T02:02:19;9.70;99.90
25250;DHT22;13201;51.148;13.738;2022-12-29T02:04:45;9.80;99.90
25250;DHT22;13201;51.148;13.738;2022-12-29T02:07:18;9.80;99.90
25250;DHT22;13201;51.148;13.738;2022-12-29T02:09:47;9.80;99.90
25250;DHT22;13201;51.148;13.738;2022-12-29T02:12:14;9.70;99.90
25250;DHT22;13201;51.148;13.738;2022-12-29T02:14:40;9.70;99.90
25250;DHT22;13201;51.148;13.738;2022-12-29T02:26:16;9.80;99.90
25250;DHT22;13201;51.148;13.738;2022-12-29T02:37:05;10.00;99.90
25250;DHT22;13201;51.148;13.738;2022-12-29T02:45:31;10.00;99.90
25250;DHT22;13201;51.148;13.738;2022-12-29T02:48:25;10.00;99.90
25250;DHT22;13201;51.148;13.738;2022-12-29T02:51:02;10.00;99.90
25250;DHT22;13201;51.148;13.738;2022-12-29T02:53:29;10.10;99.90
25250;DHT22;13201;51.148;13.738;2022-12-29T02:56:14;10.20;99.90
25250;DHT22;13201;51.148;13.738;2022-12-29T02:58:40;10.20;99.90
25250;DHT22;13201;51.148;13.738;2022-12-29T03:06:29;10.30;99.90
25250;DHT22;13201;51.148;13.738;2022-12-29T03:09:17;10.30;99.90
25250;DHT22;13201;51.148;13.738;2022-12-29T03:11:58;10.40;99.90
25250;DHT22;13201;51.148;13.738;2022-12-29T03:17:27;10.40;99.90
25250;DHT22;13201;51.148;13.738;2022-12-29T03:20:01;10.40;99.90
25250;DHT22;13201;51.148;13.738;2022-12-29T03:22:30;10.50;99.90
25250;DHT22;13201;51.148;13.738;2022-12-29T03:25:22;10.50;99.90
25250;DHT22;13201;51.148;13.738;2022-12-29T03:27:56;10.60;99.90
25250;DHT22;13201;51.148;13.738;2022-12-29T03:30:22;10.60;99.90
25250;DHT22;13201;51.148;13.738;2022-12-29T03:32:54;10.60;99.90
25250;DHT22;13201;51.148;13.738;2022-12-29T03:35:31;10.60;99.90
25250;DHT22;13201;51.148;13.738;2022-12-29T03:40:33;10.70;99.90
25250;DHT22;13201;51.148;13.738;2022-12-29T03:43:01;10.70;99.90
25250;DHT22;13201;51.148;13.738;2022-12-29T03:45:27;10.70;99.90
25250;DHT22;13201;51.148;13.738;2022-12-29T03:47:53;10.80;99.90
25250;DHT22;13201;51.148;13.738;2022-12-29T03:50:19;10.80;99.90
25250;DHT22;13201;51.148;13.738;2022-12-29T03:52:45;10.80;99.90
25250;DHT22;13201;51.148;13.738;2022-12-29T03:55:10;10.80;99.90
25250;DHT22;13201;51.148;13.738;2022-12-29T03:57:36;10.80;99.90
25250;DHT22;13201;51.148;13.738;2022-12-29T04:00:04;10.80;99.90
25250;DHT22;13201;51.148;13.738;2022-12-29T04:02:30;10.80;99.90
25250;DHT22;13201;51.148;13.738;2022-12-29T04:04:56;10.90;99.90
25250;DHT22;13201;51.148;13.738;2022-12-29T04:07:22;10.90;99.90
25250;DHT22;13201;51.148;13.738;2022-12-29T04:09:47;11.00;99.90
25250;DHT22;13201;51.148;13.738;2022-12-29T04:12:13;11.00;99.90
25250;DHT22;13201;51.148;13.738;2022-12-29T04:14:40;11.00;99.90
25250;DHT22;13201;51.148;13.738;2022-12-29T04:17:06;11.00;99.90
25250;DHT22;13201;51.148;13.738;2022-12-29T04:19:32;11.00;99.90
25250;DHT22;13201;51.148;13.738;2022-12-29T04:21:57;11.00;99.90
25250;DHT22;13201;51.148;13.738;2022-12-29T04:24:23;11.10;99.90
25250;DHT22;13201;51.148;13.738;2022-12-29T04:26:49;11.10;99.90
25250;DHT22;13201;51.148;13.738;2022-12-29T04:29:15;11.20;99.90
25250;DHT22;13201;51.148;13.738;2022-12-29T04:31:40;11.20;99.90
25250;DHT22;13201;51.148;13.738;2022-12-29T04:34:06;11.20;99.90
25250;DHT22;13201;51.148;13.738;2022-12-29T04:36:31;11.20;99.90
25250;DHT22;13201;51.148;13.738;2022-12-29T04:38:57;11.30;99.90
25250;DHT22;13201;51.148;13.738;2022-12-29T04:41:23;11.30;99.90
25250;DHT22;13201;51.148;13.738;2022-12-29T04:43:49;11.40;99.90
25250;DHT22;13201;51.148;13.738;2022-12-29T04:46:14;11.30;99.90
25250;DHT22;13201;51.148;13.738;2022-12-29T04:48:40;11.40;99.90
25250;DHT22;13201;51.148;13.738;2022-12-29T04:51:06;11.50;99.90
25250;DHT22;13201;51.148;13.738;2022-12-29T04:53:31;11.50;99.90
25250;DHT22;13201;51.148;13.738;2022-12-29T04:55:57;11.50;99.90
25250;DHT22;13201;51.148;13.738;2022-12-29T04:58:23;11.50;99.90
25250;DHT22;13201;51.148;13.738;2022-12-29T05:00:49;11.50;99.90
25250;DHT22;13201;51.148;13.738;2022-12-29T05:03:15;11.50;99.90
25250;DHT22;13201;51.148;13.738;2022-12-29T05:05:40;11.40;99.90
25250;DHT22;13201;51.148;13.738;2022-12-29T05:08:06;11.30;99.90
25250;DHT22;13201;51.148;13.738;2022-12-29T05:10:32;11.20;99.90
25250;DHT22;13201;51.148;13.738;2022-12-29T05:12:57;11.20;99.90
25250;DHT22;13201;51.148;13.738;2022-12-29T05:15:23;11.20;99.90
25250;DHT22;13201;51.148;13.738;2022-12-29T05:17:49;11.30;99.90
25250;DHT22;13201;51.148;13.738;2022-12-29T05:20:15;11.20;99.90
25250;DHT22;13201;51.148;13.738;2022-12-29T05:22:40;11.20;99.90
25250;DHT22;13201;51.148;13.738;2022-12-29T05:25:06;11.30;99.90
25250;DHT22;13201;51.148;13.738;2022-12-29T05:27:32;11.20;99.90
25250;DHT22;13201;51.148;13.738;2022-12-29T05:29:58;11.20;99.90
25250;DHT22;13201;51.148;13.738;2022-12-29T05:32:23;11.20;99.90
25250;DHT22;13201;51.148;13.738;2022-12-29T05:34:49;11.20;99.90
25250;DHT22;13201;51.148;13.738;2022-12-29T05:37:15;11.20;99.90
25250;DHT22;13201;51.148;13.738;2022-12-29T05:39:41;11.30;99.90
25250;DHT22;13201;51.148;13.738;2022-12-29T05:42:06;11.40;99.90
25250;DHT22;13201;51.148;13.738;2022-12-29T05:44:32;11.40;99.90
25250;DHT22;13201;51.148;13.738;2022-12-29T05:46:58;11.40;99.90
25250;DHT22;13201;51.148;13.738;2022-12-29T05:49:23;11.40;99.90
25250;DHT22;13201;51.148;13.738;2022-12-29T05:51:49;11.30;99.90
25250;DHT22;13201;51.148;13.738;2022-12-29T05:54:15;11.40;99.90
25250;DHT22;13201;51.148;13.738;2022-12-29T05:56:40;11.40;99.90
25250;DHT22;13201;51.148;13.738;2022-12-29T05:59:06;11.30;99.90
25250;DHT22;13201;51.148;13.738;2022-12-29T06:01:32;11.50;99.90
25250;DHT22;13201;51.148;13.738;2022-12-29T06:03:59;11.40;99.90
25250;DHT22;13201;51.148;13.738;2022-12-29T06:06:25;11.40;99.90
25250;DHT22;13201;51.148;13.738;2022-12-29T06:08:51;11.50;99.90
25250;DHT22;13201;51.148;13.738;2022-12-29T06:11:17;11.40;99.90
25250;DHT22;13201;51.148;13.738;2022-12-29T06:13:42;11.50;99.90
25250;DHT22;13201;51.148;13.738;2022-12-29T06:16:08;11.50;99.90
25250;DHT22;13201;51.148;13.738;2022-12-29T06:18:34;11.50;99.90
25250;DHT22;13201;51.148;13.738;2022-12-29T06:21:04;11.60;99.90
25250;DHT22;13201;51.148;13.738;2022-12-29T06:23:30;11.60;99.90
25250;DHT22;13201;51.148;13.738;2022-12-29T06:25:56;11.50;99.90
25250;DHT22;13201;51.148;13.738;2022-12-29T06:28:23;11.50;99.90
25250;DHT22;13201;51.148;13.738;2022-12-29T06:30:49;11.50;99.90
25250;DHT22;13201;51.148;13.738;2022-12-29T06:33:15;11.50;99.90
25250;DHT22;13201;51.148;13.738;2022-12-29T06:35:42;11.50;99.90
25250;DHT22;13201;51.148;13.738;2022-12-29T06:38:08;11.50;99.90
25250;DHT22;13201;51.148;13.738;2022-12-29T06:40:34;11.50;99.90
25250;DHT22;13201;51.148;13.738;2022-12-29T06:43:00;11.50;99.90
25250;DHT22;13201;51.148;13.738;2022-12-29T06:45:26;11.50;99.90
25250;DHT22;13201;51.148;13.738;2022-12-29T06:47:51;11.60;99.90
25250;DHT22;13201;51.148;13.738;2022-12-29T06:50:17;11.50;99.90
25250;DHT22;13201;51.148;13.738;2022-12-29T06:52:42;11.50;99.90
25250;DHT22;13201;51.148;13.738;2022-12-29T06:55:08;11.50;99.90
25250;DHT22;13201;51.148;13.738;2022-12-29T06:57:34;11.40;99.90
25250;DHT22;13201;51.148;13.738;2022-12-29T07:00:00;11.50;99.90
25250;DHT22;13201;51.148;13.738;2022-12-29T07:02:25;11.40;99.90
25250;DHT22;13201;51.148;13.738;2022-12-29T07:04:52;11.40;99.90
25250;DHT22;13201;51.148;13.738;2022-12-29T07:07:19;11.30;99.90
25250;DHT22;13201;51.148;13.738;2022-12-29T07:09:45;11.30;99.90
25250;DHT22;13201;51.148;13.738;2022-12-29T07:12:10;11.30;99.90
25250;DHT22;13201;51.148;13.738;2022-12-29T07:14:36;11.40;99.90
25250;DHT22;13201;51.148;13.738;2022-12-29T07:17:02;11.30;99.90
25250;DHT22;13201;51.148;13.738;2022-12-29T07:19:31;11.30;99.90
25250;DHT22;13201;51.148;13.738;2022-12-29T07:21:56;11.10;99.90
25250;DHT22;13201;51.148;13.738;2022-12-29T07:24:22;11.10;99.90
25250;DHT22;13201;51.148;13.738;2022-12-29T07:26:48;11.10;99.90
25250;DHT22;13201;51.148;13.738;2022-12-29T07:29:13;11.00;99.90
25250;DHT22;13201;51.148;13.738;2022-12-29T07:31:39;11.00;99.90
25250;DHT22;13201;51.148;13.738;2022-12-29T07:34:05;11.00;99.90
25250;DHT22;13201;51.148;13.738;2022-12-29T07:36:30;11.10;99.90
25250;DHT22;13201;51.148;13.738;2022-12-29T07:38:56;11.10;99.90
25250;DHT22;13201;51.148;13.738;2022-12-29T07:41:22;11.20;99.90
25250;DHT22;13201;51.148;13.738;2022-12-29T07:43:47;11.30;99.90
25250;DHT22;13201;51.148;13.738;2022-12-29T07:46:16;11.30;99.90
25250;DHT22;13201;51.148;13.738;2022-12-29T07:48:42;11.30;99.90
25250;DHT22;13201;51.148;13.738;2022-12-29T07:51:07;11.20;99.90
25250;DHT22;13201;51.148;13.738;2022-12-29T07:53:33;11.20;99.90
25250;DHT22;13201;51.148;13.738;2022-12-29T07:55:58;11.20;99.90
25250;DHT22;13201;51.148;13.738;2022-12-29T07:58:24;11.20;99.90
25250;DHT22;13201;51.148;13.738;2022-12-29T08:00:56;11.30;99.90
25250;DHT22;13201;51.148;13.738;2022-12-29T08:03:23;11.30;99.90
25250;DHT22;13201;51.148;13.738;2022-12-29T08:05:48;11.30;99.90
25250;DHT22;13201;51.148;13.738;2022-12-29T08:08:14;11.20;99.90
25250;DHT22;13201;51.148;13.738;2022-12-29T08:10:40;11.30;99.90
25250;DHT22;13201;51.148;13.738;2022-12-29T08:13:06;11.30;99.90
25250;DHT22;13201;51.148;13.738;2022-12-29T08:15:31;11.30;99.90
25250;DHT22;13201;51.148;13.738;2022-12-29T08:17:57;11.30;99.90
25250;DHT22;13201;51.148;13.738;2022-12-29T08:20:23;11.40;99.90
25250;DHT22;13201;51.148;13.738;2022-12-29T08:22:48;11.40;99.90
25250;DHT22;13201;51.148;13.738;2022-12-29T08:25:14;11.40;99.90
25250;DHT22;13201;51.148;13.738;2022-12-29T08:27:40;11.50;99.90
25250;DHT22;13201;51.148;13.738;2022-12-29T08:30:07;11.50;99.90
25250;DHT22;13201;51.148;13.738;2022-12-29T08:32:32;11.60;99.90
25250;DHT22;13201;51.148;13.738;2022-12-29T08:34:59;11.50;99.90
25250;DHT22;13201;51.148;13.738;2022-12-29T08:37:24;11.60;99.90
25250;DHT22;13201;51.148;13.738;2022-12-29T08:39:50;11.60;99.90
25250;DHT22;13201;51.148;13.738;2022-12-29T08:42:15;11.60;99.90
25250;DHT22;13201;51.148;13.738;2022-12-29T08:44:41;11.60;99.90
25250;DHT22;13201;51.148;13.738;2022-12-29T08:47:08;11.60;99.90
25250;DHT22;13201;51.148;13.738;2022-12-29T08:49:34;11.60;99.90
25250;DHT22;13201;51.148;13.738;2022-12-29T08:52:00;11.60;99.90
25250;DHT22;13201;51.148;13.738;2022-12-29T08:54:26;11.50;99.90
25250;DHT22;13201;51.148;13.738;2022-12-29T08:56:51;11.50;99.90
25250;DHT22;13201;51.148;13.738;2022-12-29T08:59:17;11.50;99.90
25250;DHT22;13201;51.148;13.738;2022-12-29T09:01:42;11.50;99.90
25250;DHT22;13201;51.148;13.738;2022-12-29T09:04:08;11.50;99.90
25250;DHT22;13201;51.148;13.738;2022-12-29T09:06:34;11.50;99.90
25250;DHT22;13201;51.148;13.738;2022-12-29T09:09:00;11.40;99.90
25250;DHT22;13201;51.148;13.738;2022-12-29T09:11:26;11.40;99.90
25250;DHT22;13201;51.148;13.738;2022-12-29T09:13:53;11.50;99.90
25250;DHT22;13201;51.148;13.738;2022-12-29T09:16:21;11.50;99.90
25250;DHT22;13201;51.148;13.738;2022-12-29T09:18:47;11.50;99.90
25250;DHT22;13201;51.148;13.738;2022-12-29T09:21:13;11.60;99.90
25250;DHT22;13201;51.148;13.738;2022-12-29T09:23:39;11.70;99.90
25250;DHT22;13201;51.148;13.738;2022-12-29T09:26:06;11.70;99.90
25250;DHT22;13201;51.148;13.738;2022-12-29T09:28:32;11.80;99.90
25250;DHT22;13201;51.148;13.738;2022-12-29T09:30:59;11.70;99.90
25250;DHT22;13201;51.148;13.738;2022-12-29T09:33:25;11.80;99.90
25250;DHT22;13201;51.148;13.738;2022-12-29T09:35:53;11.90;99.90
25250;DHT22;13201;51.148;13.738;2022-12-29T09:38:20;12.00;99.90
25250;DHT22;13201;51.148;13.738;2022-12-29T09:40:50;12.00;99.90
25250;DHT22;13201;51.148;13.738;2022-12-29T09:49:23;12.10;99.90
25250;DHT22;13201;51.148;13.738;2022-12-29T09:51:53;12.00;99.90
25250;DHT22;13201;51.148;13.738;2022-12-29T09:57:20;12.20;99.90
25250;DHT22;13201;51.148;13.738;2022-12-29T09:59:49;12.30;99.90
25250;DHT22;13201;51.148;13.738;2022-12-29T10:04:51;12.50;99.90
25250;DHT22;13201;51.148;13.738;2022-12-29T10:07:42;12.50;99.90
25250;DHT22;13201;51.148;13.738;2022-12-29T10:10:40;12.60;99.90
25250;DHT22;13201;51.148;13.738;2022-12-29T10:24:16;12.90;99.90
25250;DHT22;13201;51.148;13.738;2022-12-29T10:26:43;12.90;99.90
25250;DHT22;13201;51.148;13.738;2022-12-29T10:29:20;12.90;99.90
25250;DHT22;13201;51.148;13.738;2022-12-29T10:34:47;13.00;99.90
25250;DHT22;13201;51.148;13.738;2022-12-29T10:39:55;13.00;99.90
25250;DHT22;13201;51.148;13.738;2022-12-29T10:42:36;13.00;99.90
25250;DHT22;13201;51.148;13.738;2022-12-29T10:45:04;13.20;99.90
25250;DHT22;13201;51.148;13.738;2022-12-29T10:47:34;13.30;99.90
25250;DHT22;13201;51.148;13.738;2022-12-29T10:50:02;13.10;99.90
25250;DHT22;13201;51.148;13.738;2022-12-29T10:52:28;13.00;99.90
25250;DHT22;13201;51.148;13.738;2022-12-29T10:55:19;13.10;99.90
25250;DHT22;13201;51.148;13.738;2022-12-29T10:57:47;13.00;99.90
25250;DHT22;13201;51.148;13.738;2022-12-29T11:00:18;13.00;99.90
25250;DHT22;13201;51.148;13.738;2022-12-29T11:08:23;13.30;99.90
25250;DHT22;13201;51.148;13.738;2022-12-29T11:11:01;13.40;99.90
25250;DHT22;13201;51.148;13.738;2022-12-29T11:13:30;13.30;99.90
25250;DHT22;13201;51.148;13.738;2022-12-29T11:15:56;13.30;99.90
25250;DHT22;13201;51.148;13.738;2022-12-29T11:18:26;13.30;99.90
25250;DHT22;13201;51.148;13.738;2022-12-29T11:20:54;13.30;99.90
25250;DHT22;13201;51.148;13.738;2022-12-29T11:23:33;13.30;99.90
25250;DHT22;13201;51.148;13.738;2022-12-29T11:26:21;13.30;99.90
25250;DHT22;13201;51.148;13.738;2022-12-29T11:29:23;13.20;99.90
25250;DHT22;13201;51.148;13.738;2022-12-29T11:31:51;13.10;99.90
25250;DHT22;13201;51.148;13.738;2022-12-29T11:34:24;13.10;99.90
25250;DHT22;13201;51.148;13.738;2022-12-29T11:36:58;13.10;99.90
25250;DHT22;13201;51.148;13.738;2022-12-29T11:39:36;13.10;99.90
25250;DHT22;13201;51.148;13.738;2022-12-29T11:42:02;13.20;99.90
25250;DHT22;13201;51.148;13.738;2022-12-29T11:44:32;13.10;99.90
25250;DHT22;13201;51.148;13.738;2022-12-29T11:47:01;13.20;99.90
25250;DHT22;13201;51.148;13.738;2022-12-29T11:49:27;13.20;99.90
25250;DHT22;13201;51.148;13.738;2022-12-29T11:51:53;13.20;99.90
25250;DHT22;13201;51.148;13.738;2022-12-29T11:54:31;13.20;99.90
25250;DHT22;13201;51.148;13.738;2022-12-29T11:56:58;13.20;99.90
25250;DHT22;13201;51.148;13.738;2022-12-29T11:59:40;13.20;99.90
25250;DHT22;13201;51.148;13.738;2022-12-29T12:05:14;13.20;99.90
25250;DHT22;13201;51.148;13.738;2022-12-29T12:08:42;13.20;99.90
25250;DHT22;13201;51.148;13.738;2022-12-29T12:13:34;13.20;99.90
25250;DHT22;13201;51.148;13.738;2022-12-29T12:26:35;13.40;99.90
25250;DHT22;13201;51.148;13.738;2022-12-29T12:29:11;13.40;99.90
25250;DHT22;13201;51.148;13.738;2022-12-29T12:31:51;13.40;99.90
25250;DHT22;13201;51.148;13.738;2022-12-29T12:34:41;13.40;99.90
25250;DHT22;13201;51.148;13.738;2022-12-29T12:51:31;13.90;99.90
25250;DHT22;13201;51.148;13.738;2022-12-29T13:07:50;14.00;99.90
25250;DHT22;13201;51.148;13.738;2022-12-29T13:19:21;14.00;99.90
25250;DHT22;13201;51.148;13.738;2022-12-29T13:27:51;13.80;99.90
25250;DHT22;13201;51.148;13.738;2022-12-29T13:30:17;13.80;99.90
25250;DHT22;13201;51.148;13.738;2022-12-29T13:33:23;13.70;99.90
25250;DHT22;13201;51.148;13.738;2022-12-29T13:36:02;13.70;99.90
25250;DHT22;13201;51.148;13.738;2022-12-29T13:38:34;13.60;99.90
25250;DHT22;13201;51.148;13.738;2022-12-29T13:41:13;13.60;99.90
25250;DHT22;13201;51.148;13.738;2022-12-29T13:43:44;13.60;99.90
25250;DHT22;13201;51.148;13.738;2022-12-29T13:46:23;13.50;99.90
25250;DHT22;13201;51.148;13.738;2022-12-29T13:48:58;13.60;99.90
25250;DHT22;13201;51.148;13.738;2022-12-29T13:51:25;13.50;99.90
25250;DHT22;13201;51.148;13.738;2022-12-29T13:56:39;13.40;99.90
25250;DHT22;13201;51.148;13.738;2022-12-29T14:00:01;13.30;99.90
25250;DHT22;13201;51.148;13.738;2022-12-29T14:02:37;13.30;99.90
25250;DHT22;13201;51.148;13.738;2022-12-29T14:05:27;13.20;99.90
25250;DHT22;13201;51.148;13.738;2022-12-29T14:07:59;13.30;99.90
25250;DHT22;13201;51.148;13.738;2022-12-29T14:10:29;13.20;99.90
25250;DHT22;13201;51.148;13.738;2022-12-29T14:13:17;13.20;99.90
25250;DHT22;13201;51.148;13.738;2022-12-29T14:15:55;13.20;99.90
25250;DHT22;13201;51.148;13.738;2022-12-29T14:18:28;13.20;99.90
25250;DHT22;13201;51.148;13.738;2022-12-29T14:23:38;13.10;99.90
25250;DHT22;13201;51.148;13.738;2022-12-29T14:28:41;13.20;99.90
25250;DHT22;13201;51.148;13.738;2022-12-29T14:36:37;13.20;99.90
25250;DHT22;13201;51.148;13.738;2022-12-29T14:39:23;13.30;99.90
25250;DHT22;13201;51.148;13.738;2022-12-29T14:44:48;13.30;99.90
25250;DHT22;13201;51.148;13.738;2022-12-29T14:47:40;13.30;99.90
25250;DHT22;13201;51.148;13.738;2022-12-29T14:50:04;13.40;99.90
25250;DHT22;13201;51.148;13.738;2022-12-29T14:52:31;13.30;99.90
25250;DHT22;13201;51.148;13.738;2022-12-29T14:55:28;13.30;99.90
25250;DHT22;13201;51.148;13.738;2022-12-29T14:57:51;13.30;99.90
25250;DHT22;13201;51.148;13.738;2022-12-29T15:00:24;13.30;99.90
25250;DHT22;13201;51.148;13.738;2022-12-29T15:03:05;13.30;99.90
25250;DHT22;13201;51.148;13.738;2022-12-29T15:05:44;13.20;99.90
25250;DHT22;13201;51.148;13.738;2022-12-29T15:08:13;13.20;99.90
25250;DHT22;13201;51.148;13.738;2022-12-29T15:13:34;13.00;99.90
25250;DHT22;13201;51.148;13.738;2022-12-29T15:15:59;13.10;99.90
25250;DHT22;13201;51.148;13.738;2022-12-29T15:18:30;13.10;99.90
25250;DHT22;13201;51.148;13.738;2022-12-29T15:21:06;13.00;99.90
25250;DHT22;13201;51.148;13.738;2022-12-29T15:23:34;12.90;99.90
25250;DHT22;13201;51.148;13.738;2022-12-29T15:26:05;12.90;99.90
25250;DHT22;13201;51.148;13.738;2022-12-29T15:28:45;12.90;99.90
25250;DHT22;13201;51.148;13.738;2022-12-29T15:31:15;12.90;99.90
25250;DHT22;13201;51.148;13.738;2022-12-29T15:33:44;12.80;99.90
25250;DHT22;13201;51.148;13.738;2022-12-29T15:36:12;12.80;99.90
25250;DHT22;13201;51.148;13.738;2022-12-29T15:38:39;12.70;99.90
25250;DHT22;13201;51.148;13.738;2022-12-29T15:44:16;12.60;99.90
25250;DHT22;13201;51.148;13.738;2022-12-29T15:46:44;12.60;99.90
25250;DHT22;13201;51.148;13.738;2022-12-29T15:49:13;12.50;99.90
25250;DHT22;13201;51.148;13.738;2022-12-29T15:51:39;12.50;99.90
25250;DHT22;13201;51.148;13.738;2022-12-29T15:54:12;12.60;99.90
25250;DHT22;13201;51.148;13.738;2022-12-29T15:56:40;12.50;99.90
25250;DHT22;13201;51.148;13.738;2022-12-29T15:59:26;12.50;99.90
25250;DHT22;13201;51.148;13.738;2022-12-29T16:01:56;12.40;99.90
25250;DHT22;13201;51.148;13.738;2022-12-29T16:04:25;12.30;99.90
25250;DHT22;13201;51.148;13.738;2022-12-29T16:07:03;12.30;99.90
25250;DHT22;13201;51.148;13.738;2022-12-29T16:09:35;12.30;99.90
25250;DHT22;13201;51.148;13.738;2022-12-29T16:12:06;12.30;99.90
25250;DHT22;13201;51.148;13.738;2022-12-29T16:14:42;12.20;99.90
25250;DHT22;13201;51.148;13.738;2022-12-29T16:17:16;12.20;99.90
25250;DHT22;13201;51.148;13.738;2022-12-29T16:20:37;12.20;99.90
25250;DHT22;13201;51.148;13.738;2022-12-29T16:22:55;12.00;99.90
25250;DHT22;13201;51.148;13.738;2022-12-29T16:27:50;11.90;99.90
25250;DHT22;13201;51.148;13.738;2022-12-29T16:30:20;11.90;99.90
25250;DHT22;13201;51.148;13.738;2022-12-29T16:32:52;11.90;99.90
25250;DHT22;13201;51.148;13.738;2022-12-29T16:35:23;11.90;99.90
25250;DHT22;13201;51.148;13.738;2022-12-29T16:38:20;11.80;99.90
25250;DHT22;13201;51.148;13.738;2022-12-29T16:40:58;11.80;99.90
25250;DHT22;13201;51.148;13.738;2022-12-29T16:43:35;11.90;99.90
25250;DHT22;13201;51.148;13.738;2022-12-29T16:46:21;11.90;99.90
25250;DHT22;13201;51.148;13.738;2022-12-29T16:48:53;12.00;99.90
25250;DHT22;13201;51.148;13.738;2022-12-29T16:51:28;11.90;99.90
25250;DHT22;13201;51.148;13.738;2022-12-29T16:53:55;11.90;99.90
25250;DHT22;13201;51.148;13.738;2022-12-29T16:56:23;11.90;99.90
25250;DHT22;13201;51.148;13.738;2022-12-29T16:59:03;11.90;99.90
25250;DHT22;13201;51.148;13.738;2022-12-29T17:01:30;11.90;99.90
25250;DHT22;13201;51.148;13.738;2022-12-29T17:04:04;11.90;99.90
25250;DHT22;13201;51.148;13.738;2022-12-29T17:06:31;11.80;99.90
25250;DHT22;13201;51.148;13.738;2022-12-29T17:08:56;11.90;99.90
25250;DHT22;13201;51.148;13.738;2022-12-29T17:11:32;11.80;99.90
25250;DHT22;13201;51.148;13.738;2022-12-29T17:16:51;11.60;99.90
25250;DHT22;13201;51.148;13.738;2022-12-29T17:19:19;11.70;99.90
25250;DHT22;13201;51.148;13.738;2022-12-29T17:21:46;11.50;99.90
25250;DHT22;13201;51.148;13.738;2022-12-29T17:24:16;11.50;99.90
25250;DHT22;13201;51.148;13.738;2022-12-29T17:26:44;11.50;99.90
25250;DHT22;13201;51.148;13.738;2022-12-29T17:29:38;11.40;99.90
25250;DHT22;13201;51.148;13.738;2022-12-29T17:32:09;11.40;99.90
25250;DHT22;13201;51.148;13.738;2022-12-29T17:34:35;11.40;99.90
25250;DHT22;13201;51.148;13.738;2022-12-29T17:37:01;11.30;99.90
25250;DHT22;13201;51.148;13.738;2022-12-29T17:39:26;11.30;99.90
25250;DHT22;13201;51.148;13.738;2022-12-29T17:41:52;11.30;99.90
25250;DHT22;13201;51.148;13.738;2022-12-29T17:44:19;11.30;99.90
25250;DHT22;13201;51.148;13.738;2022-12-29T17:46:46;11.30;99.90
25250;DHT22;13201;51.148;13.738;2022-12-29T17:49:15;11.30;99.90
25250;DHT22;13201;51.148;13.738;2022-12-29T17:51:45;11.30;99.90
25250;DHT22;13201;51.148;13.738;2022-12-29T17:54:29;11.30;99.90
25250;DHT22;13201;51.148;13.738;2022-12-29T17:56:56;11.20;99.90
25250;DHT22;13201;51.148;13.738;2022-12-29T17:59:21;11.20;99.90
25250;DHT22;13201;51.148;13.738;2022-12-29T18:01:48;11.20;99.90
25250;DHT22;13201;51.148;13.738;2022-12-29T18:04:19;11.20;99.90
25250;DHT22;13201;51.148;13.738;2022-12-29T18:06:45;11.20;99.90
25250;DHT22;13201;51.148;13.738;2022-12-29T18:09:12;11.20;99.90
25250;DHT22;13201;51.148;13.738;2022-12-29T18:11:42;11.10;99.90
25250;DHT22;13201;51.148;13.738;2022-12-29T18:14:16;11.20;99.90
25250;DHT22;13201;51.148;13.738;2022-12-29T18:16:42;11.10;99.90
25250;DHT22;13201;51.148;13.738;2022-12-29T18:19:08;11.00;99.90
25250;DHT22;13201;51.148;13.738;2022-12-29T18:21:35;11.10;99.90
25250;DHT22;13201;51.148;13.738;2022-12-29T18:24:01;11.00;99.90
25250;DHT22;13201;51.148;13.738;2022-12-29T18:26:28;11.00;99.90
25250;DHT22;13201;51.148;13.738;2022-12-29T18:28:56;10.90;99.90
25250;DHT22;13201;51.148;13.738;2022-12-29T18:31:30;10.90;99.90
25250;DHT22;13201;51.148;13.738;2022-12-29T18:33:58;10.90;99.90
25250;DHT22;13201;51.148;13.738;2022-12-29T18:36:24;10.80;99.90
25250;DHT22;13201;51.148;13.738;2022-12-29T18:38:50;10.80;99.90